Llano Quemado, New Mexico
Current Conditions -  °F | °C
As of 6:35 AM on Wednesday 26 Nov 2014 (Local Time) from KSKX Reporting Station
Clear Clear  
Wind Chill: -11°   Ceiling: Unl
Heat Index: -11°   Visibility: 10mi
Dew Point: -13°   Wind: 0mph
Humidity: 85%   Direction: NA
Pressure: 30.32"   Gusts: NA
Location:  36.2692°N, 105.543°W
Report Text: KSKX 261335Z AUTO 00000KT 10SM CLR M11/M13 A3032 RMK AO1
Loading
Personal Weather Stations






























Interactive Weather Map New forecast layout! Learn more

10-Day Weather Forecast

Advertisements
Track Severe Weather on mobile